Time;durP1;ratioP1;P1;durP2;ratioP2;P2;SDS_P1;SDS_P2;PMS_P1;PMS_P2;Temp;Humidity;BMP_temperature;BMP_pressure;BME280_temperature;BME280_humidity;BME280_pressure;Samples;Min_cycle;Max_cycle;Signal;HPM_P1;HPM_P2
2023/01/14 00:01:12;;;;;;;;;;;;;;;16.94;47.85;101404.75;5079336;28;1909;-48
2023/01/14 00:03:38;;;;;;;;;;;;;;;16.81;47.86;101403.25;5058858;28;1032;-48
2023/01/14 00:06:03;;;;;;;;;;;;;;;17.03;48.09;101399.66;5071718;28;1078;-44
2023/01/14 00:08:29;;;;;;;;;;;;;;;17.90;46.50;101396.66;5058380;28;1079;-49
2023/01/14 00:10:54;;;;;;;;;;;;;;;16.88;47.60;101403.03;5067295;28;1076;-49
2023/01/14 00:13:20;;;;;;;;;;;;;;;17.81;47.11;101398.25;5077905;28;1075;-45
2023/01/14 00:15:54;;;;;;;;;;;;;;;17.36;47.63;101398.53;5065052;28;1023;-45
2023/01/14 00:18:19;;;;;;;;;;;;;;;16.75;47.45;101407.84;5070076;28;1163;-44
2023/01/14 00:20:54;;;;;;;;;;;;;;;16.52;46.76;101399.94;5059573;28;1906;-46
2023/01/14 00:23:19;;;;;;;;;;;;;;;17.60;47.19;101406.41;5078112;28;895;-43
2023/01/14 00:25:44;;;;;;;;;;;;;;;16.62;48.03;101411.03;5075954;28;1138;-46
2023/01/14 00:28:10;;;;;;;;;;;;;;;17.26;47.73;101407.53;5067132;28;1058;-44
2023/01/14 00:30:35;;;;;;;;;;;;;;;17.20;47.71;101410.50;5044931;28;1253;-47
2023/01/14 00:33:01;;;;;;;;;;;;;;;16.55;47.60;101405.75;5066913;28;1084;-47
2023/01/14 00:35:26;;;;;;;;;;;;;;;17.41;47.42;101409.56;5077716;28;1094;-44
2023/01/14 00:37:52;;;;;;;;;;;;;;;17.03;47.89;101399.66;5078234;28;1078;-47
2023/01/14 00:40:17;;;;;;;;;;;;;;;16.57;47.61;101403.56;5076980;28;1966;-45
2023/01/14 00:42:42;;;;;;;;;;;;;;;17.20;47.85;101399.50;5040219;28;1202;-48
2023/01/14 00:45:08;;;;;;;;;;;;;;;16.90;47.81;101409.13;5058763;28;1094;-44
2023/01/14 00:47:33;;;;;;;;;;;;;;;16.40;47.46;101402.81;5077677;28;910;-47
2023/01/14 00:50:00;;;;;;;;;;;;;;;17.45;47.01;101407.94;5076847;28;1079;-44
2023/01/14 00:52:25;;;;;;;;;;;;;;;16.66;47.49;101401.19;5047451;28;1202;-43
2023/01/14 00:54:51;;;;;;;;;;;;;;;16.33;47.15;101403.00;5077006;28;1071;-43
2023/01/14 00:57:16;;;;;;;;;;;;;;;17.53;46.70;101392.88;5057625;28;954;-42
2023/01/14 00:59:41;;;;;;;;;;;;;;;16.58;47.90;101393.41;5069753;28;1901;-46
2023/01/14 01:02:07;;;;;;;;;;;;;;;16.89;48.05;101382.75;5077944;28;1099;-48
2023/01/14 01:04:32;;;;;;;;;;;;;;;17.08;47.55;101385.94;5063944;28;1450;-43
2023/01/14 01:06:58;;;;;;;;;;;;;;;16.40;48.00;101389.91;5077974;28;1039;-46
2023/01/14 01:09:24;;;;;;;;;;;;;;;16.21;47.16;101383.09;5064138;28;1143;-45
2023/01/14 01:11:49;;;;;;;;;;;;;;;17.36;47.33;101379.31;5053717;28;1217;-47
2023/01/14 01:14:15;;;;;;;;;;;;;;;16.91;48.08;101375.91;5045629;28;1243;-48
2023/01/14 01:16:42;;;;;;;;;;;;;;;18.60;45.06;101377.13;5057485;28;1146;-47
2023/01/14 01:19:07;;;;;;;;;;;;;;;17.47;47.10;101371.09;5057155;28;1127;-45
2023/01/14 01:21:32;;;;;;;;;;;;;;;16.85;47.32;101367.84;5064758;28;1986;-46
2023/01/14 01:23:58;;;;;;;;;;;;;;;16.71;47.47;101373.75;5057511;28;1103;-48
2023/01/14 01:26:24;;;;;;;;;;;;;;;17.26;47.59;101365.47;5069495;28;1043;-47
2023/01/14 01:28:51;;;;;;;;;;;;;;;16.64;47.87;101364.09;5070725;28;1064;-46
2023/01/14 01:31:17;;;;;;;;;;;;;;;17.14;47.75;101357.41;5039203;28;1027;-41
2023/01/14 01:33:42;;;;;;;;;;;;;;;17.20;47.61;101363.78;5057159;28;1059;-45
2023/01/14 01:36:11;;;;;;;;;;;;;;;16.59;47.74;101356.63;5076825;28;850;-48
2023/01/14 01:38:36;;;;;;;;;;;;;;;17.88;46.53;101355.66;5077131;28;1110;-47
2023/01/14 01:41:02;;;;;;;;;;;;;;;16.75;47.89;101344.69;5068735;28;1976;-44
2023/01/14 01:43:29;;;;;;;;;;;;;;;18.06;46.31;101343.38;5056685;28;1178;-47
2023/01/14 01:45:56;;;;;;;;;;;;;;;17.85;46.67;101345.19;5064466;28;1036;-45
2023/01/14 01:48:23;;;;;;;;;;;;;;;16.83;47.53;101340.66;5075364;28;901;-47
2023/01/14 01:51:09;;;;;;;;;;;;;;;16.56;46.99;101332.44;5046325;28;1547;-47
2023/01/14 01:53:35;;;;;;;;;;;;;;;17.53;47.14;101337.03;5058429;28;1476;-46
2023/01/14 01:56:02;;;;;;;;;;;;;;;16.76;47.55;101337.31;5065941;28;1036;-44
2023/01/14 01:58:28;;;;;;;;;;;;;;;16.42;46.96;101334.75;5039542;28;1184;-45
2023/01/14 02:00:53;;;;;;;;;;;;;;;16.99;47.84;101338.06;5039759;28;1902;-44
2023/01/14 02:03:20;;;;;;;;;;;;;;;17.30;47.70;101330.03;5069681;28;1085;-48
2023/01/14 02:05:46;;;;;;;;;;;;;;;18.83;44.76;101333.59;5056658;28;1175;-47
2023/01/14 02:08:12;;;;;;;;;;;;;;;17.51;47.06;101328.25;5052210;28;1278;-45
2023/01/14 02:10:56;;;;;;;;;;;;;;;16.98;46.87;101326.22;5049307;28;1044;-47
2023/01/14 02:13:25;;;;;;;;;;;;;;;16.56;46.79;101330.53;5038775;28;1240;-48
2023/01/14 02:16:00;;;;;;;;;;;;;;;17.41;47.08;101331.75;5057351;28;1191;-46
2023/01/14 02:18:38;;;;;;;;;;;;;;;16.83;47.75;101329.66;5049624;28;1244;-45
2023/01/14 02:21:04;;;;;;;;;;;;;;;16.79;48.16;101328.53;5051719;28;1906;-47
2023/01/14 02:23:42;;;;;;;;;;;;;;;17.40;47.37;101328.19;5043609;28;1242;-45
2023/01/14 02:26:15;;;;;;;;;;;;;;;16.61;47.98;101324.25;5057898;28;1099;-46
2023/01/14 02:28:47;;;;;;;;;;;;;;;16.98;48.18;101326.22;5058564;28;1171;-46
2023/01/14 02:31:13;;;;;;;;;;;;;;;17.01;48.02;101330.38;5069783;28;1050;-46
2023/01/14 02:34:05;;;;;;;;;;;;;;;16.52;47.74;101323.91;5051005;28;1115;-49
2023/01/14 02:36:51;;;;;;;;;;;;;;;17.71;47.09;101328.34;5048430;28;1311;-47
2023/01/14 02:39:33;;;;;;;;;;;;;;;16.70;48.05;101328.16;5040439;28;1422;-45
2023/01/14 02:45:02;;;;;;;;;;;;;;;16.76;48.01;101329.06;5044144;28;1319;-47
2023/01/14 02:47:28;;;;;;;;;;;;;;;16.20;48.29;101326.56;5037218;28;2161;-43
2023/01/14 02:49:54;;;;;;;;;;;;;;;17.56;46.80;101336.53;5038392;28;1168;-43
2023/01/14 02:52:19;;;;;;;;;;;;;;;16.55;47.77;101334.34;5038048;28;1254;-45
2023/01/14 02:54:52;;;;;;;;;;;;;;;17.55;46.97;101332.13;5038053;28;1211;-45
2023/01/14 02:57:27;;;;;;;;;;;;;;;17.04;47.75;101341.69;5038216;28;1151;-47
2023/01/14 03:00:02;;;;;;;;;;;;;;;16.50;47.53;101342.53;5062078;28;1981;-46
2023/01/14 03:02:42;;;;;;;;;;;;;;;16.22;47.01;101346.34;5047694;28;1226;-47
2023/01/14 03:05:11;;;;;;;;;;;;;;;16.66;47.86;101348.16;5051961;28;1060;-49
2023/01/14 03:08:12;;;;;;;;;;;;;;;17.20;47.42;101350.03;5038055;28;1291;-44
2023/01/14 03:10:41;;;;;;;;;;;;;;;18.11;46.14;101348.88;4965529;28;1141;-46
2023/01/14 03:13:29;;;;;;;;;;;;;;;17.01;47.52;101346.84;5056027;28;1109;-46
2023/01/14 03:16:15;;;;;;;;;;;;;;;16.69;47.91;101358.63;5031539;28;1267;-47
2023/01/14 03:19:00;;;;;;;;;;;;;;;17.09;47.72;101344.44;5050261;28;1660;-46
2023/01/14 03:21:27;;;;;;;;;;;;;;;16.51;47.77;101354.34;5044531;28;1983;-47
2023/01/14 03:23:59;;;;;;;;;;;;;;;16.57;47.80;101350.56;5049658;28;1337;-42
2023/01/14 03:26:24;;;;;;;;;;;;;;;16.88;47.75;101345.34;5037709;28;1138;-43
2023/01/14 03:28:50;;;;;;;;;;;;;;;16.34;47.68;101341.56;5051268;28;1227;-45
2023/01/14 03:31:18;;;;;;;;;;;;;;;17.99;46.17;101348.28;5028671;28;1307;-46
2023/01/14 03:33:49;;;;;;;;;;;;;;;16.79;48.03;101347.75;5044004;28;1221;-46
2023/01/14 03:36:14;;;;;;;;;;;;;;;16.37;47.48;101346.53;5033996;28;1150;-41
2023/01/14 03:38:48;;;;;;;;;;;;;;;17.28;47.60;101344.88;5032876;28;1293;-43
2023/01/14 03:42:17;;;;;;;;;;;;;;;16.95;47.56;101348.75;5064519;28;1898;-48
2023/01/14 03:43:59;;;;;;;;;;;;;;;17.65;47.19;101354.16;5046968;28;1432;-44
2023/01/14 03:46:25;;;;;;;;;;;;;;;18.17;45.96;101352.47;5062726;28;1155;-44
2023/01/14 03:48:50;;;;;;;;;;;;;;;16.95;47.70;101354.22;5076712;28;1138;-46
2023/01/14 03:51:35;;;;;;;;;;;;;;;16.75;47.43;101358.44;5048805;28;1130;-44
2023/01/14 03:54:04;;;;;;;;;;;;;;;17.17;47.65;101353.31;5049138;28;1120;-47
2023/01/14 03:56:40;;;;;;;;;;;;;;;16.56;47.97;101365.38;5076582;28;1064;-42
2023/01/14 03:59:13;;;;;;;;;;;;;;;17.27;47.49;101367.94;5041348;28;1159;-45
2023/01/14 04:01:40;;;;;;;;;;;;;;;16.80;48.02;101368.63;5057235;28;1906;-46
2023/01/14 04:04:05;;;;;;;;;;;;;;;16.82;48.14;101365.63;5061201;28;1047;-44
2023/01/14 04:06:30;;;;;;;;;;;;;;;17.77;46.63;101357.53;5055795;28;1385;-46
2023/01/14 04:08:56;;;;;;;;;;;;;;;16.78;47.66;101359.81;5069952;28;1154;-44
2023/01/14 04:11:21;;;;;;;;;;;;;;;17.86;46.82;101360.59;5071365;28;1066;-42
2023/01/14 04:16:31;;;;;;;;;;;;;;;16.63;47.49;101370.66;5068284;28;1024;-45
2023/01/14 04:18:56;;;;;;;;;;;;;;;16.49;46.74;101367.50;5072921;28;1234;-47
2023/01/14 04:21:21;;;;;;;;;;;;;;;17.74;46.83;101368.22;5058894;28;1961;-49
2023/01/14 04:23:47;;;;;;;;;;;;;;;16.75;47.98;101366.66;5076203;28;993;-49
2023/01/14 04:26:12;;;;;;;;;;;;;;;17.05;48.03;101362.53;5070043;28;1083;-50
2023/01/14 04:28:38;;;;;;;;;;;;;;;17.51;47.35;101366.75;5064310;28;1498;-51
2023/01/14 04:31:03;;;;;;;;;;;;;;;16.67;47.68;101371.81;5066334;28;1063;-48
2023/01/14 04:33:29;;;;;;;;;;;;;;;16.37;47.35;101367.66;5058664;28;1084;-48
2023/01/14 04:35:54;;;;;;;;;;;;;;;17.08;47.51;101364.78;5076818;28;1166;-48
2023/01/14 04:38:20;;;;;;;;;;;;;;;16.39;47.83;101368.22;5076551;28;1031;-47
2023/01/14 04:40:48;;;;;;;;;;;;;;;18.18;45.96;101364.34;5070949;28;1906;-49
2023/01/14 04:43:13;;;;;;;;;;;;;;;17.11;47.52;101368.94;5069074;28;1071;-47
2023/01/14 04:45:38;;;;;;;;;;;;;;;16.64;47.55;101373.16;5072677;28;1110;-50
2023/01/14 04:48:04;;;;;;;;;;;;;;;17.88;46.83;101376.81;5064967;28;2448;-48
2023/01/14 04:50:33;;;;;;;;;;;;;;;16.90;47.83;101373.41;5057755;28;1127;-43
2023/01/14 04:53:15;;;;;;;;;;;;;;;17.23;47.95;101377.00;5070068;28;1031;-47
2023/01/14 04:55:41;;;;;;;;;;;;;;;17.60;47.11;101376.97;5069479;28;1111;-44
2023/01/14 04:58:06;;;;;;;;;;;;;;;16.81;47.69;101373.03;5057234;28;1159;-43
2023/01/14 05:00:32;;;;;;;;;;;;;;;17.60;47.43;101384.41;5065403;28;1909;-45
2023/01/14 05:02:57;;;;;;;;;;;;;;;17.03;47.32;101378.47;5069418;28;1200;-46
2023/01/14 05:05:23;;;;;;;;;;;;;;;16.57;47.26;101375.28;5063365;28;1043;-47
2023/01/14 05:07:48;;;;;;;;;;;;;;;17.23;47.54;101375.06;5062951;28;1054;-52
2023/01/14 05:10:15;;;;;;;;;;;;;;;16.61;47.95;101368.19;5074580;28;1325;-55
2023/01/14 05:12:55;;;;;;;;;;;;;;;18.12;46.14;101367.06;5076784;28;1027;-56
2023/01/14 05:15:28;;;;;;;;;;;;;;;17.84;46.67;101370.19;5077285;28;972;-58
2023/01/14 05:17:53;;;;;;;;;;;;;;;17.07;47.04;101376.06;5076827;28;1854;-55
2023/01/14 05:20:19;;;;;;;;;;;;;;;16.67;46.80;101377.31;5077014;28;1910;-56
2023/01/14 05:22:44;;;;;;;;;;;;;;;17.78;46.32;101378.44;5074954;28;1559;-56
2023/01/14 05:25:10;;;;;;;;;;;;;;;16.90;47.36;101378.91;5068038;28;1033;-57
2023/01/14 05:27:35;;;;;;;;;;;;;;;16.60;47.73;101374.75;5069933;28;1396;-56
2023/01/14 05:30:02;;;;;;;;;;;;;;;17.13;47.45;101371.44;5062302;28;1134;-54
2023/01/14 05:32:28;;;;;;;;;;;;;;;16.58;47.89;101376.94;5067094;28;1796;-51
2023/01/14 05:34:53;;;;;;;;;;;;;;;18.42;45.37;101373.75;5058221;28;1094;-46
2023/01/14 05:37:19;;;;;;;;;;;;;;;17.13;47.27;101376.91;5064252;28;1039;-41
2023/01/14 05:39:44;;;;;;;;;;;;;;;16.61;47.37;101376.41;5069168;28;1910;-43
2023/01/14 05:47:37;;;;;;;;;;;;;;;16.41;46.80;101371.53;5064278;28;2357;-45
2023/01/14 05:50:03;;;;;;;;;;;;;;;17.35;47.10;101379.53;5072161;28;937;-40
2023/01/14 05:52:28;;;;;;;;;;;;;;;16.58;48.12;101376.94;5062346;28;1000;-43
2023/01/14 05:54:54;;;;;;;;;;;;;;;18.45;45.33;101384.25;5067669;28;1138;-42
2023/01/14 05:57:19;;;;;;;;;;;;;;;17.51;46.96;101374.97;5076226;28;1214;-42
2023/01/14 05:59:45;;;;;;;;;;;;;;;16.81;47.24;101374.97;5073492;28;1984;-42
2023/01/14 06:07:38;;;;;;;;;;;;;;;16.48;47.11;101380.41;5075009;28;1175;-46
2023/01/14 06:10:04;;;;;;;;;;;;;;;17.44;47.11;101381.53;5073037;28;1261;-42
2023/01/14 06:15:13;;;;;;;;;;;;;;;16.45;47.34;101380.91;5070421;28;1435;-44
2023/01/14 06:17:45;;;;;;;;;;;;;;;16.64;47.35;101356.69;5057912;28;2378;-45
2023/01/14 06:20:11;;;;;;;;;;;;;;;16.49;47.74;101375.75;5071118;28;1902;-46
2023/01/14 06:22:36;;;;;;;;;;;;;;;17.68;46.24;101383.06;5061941;28;1047;-45
2023/01/14 06:25:02;;;;;;;;;;;;;;;17.07;47.39;101379.63;5063252;28;1167;-44
2023/01/14 06:27:27;;;;;;;;;;;;;;;16.61;48.42;101376.41;5076127;28;1134;-43
2023/01/14 06:29:52;;;;;;;;;;;;;;;16.31;49.04;101383.22;5076105;28;1115;-49
2023/01/14 06:32:18;;;;;;;;;;;;;;;16.12;49.46;101384.63;5075600;28;1162;-47
2023/01/14 06:34:43;;;;;;;;;;;;;;;15.93;49.74;101393.19;5075544;28;1092;-47
2023/01/14 06:37:09;;;;;;;;;;;;;;;15.77;50.15;101391.28;5068729;28;1504;-45
2023/01/14 06:39:34;;;;;;;;;;;;;;;15.67;50.25;101390.06;5066722;28;1187;-41
2023/01/14 06:42:00;;;;;;;;;;;;;;;15.79;50.34;101386.38;5075441;28;1987;-47
2023/01/14 06:44:25;;;;;;;;;;;;;;;17.27;46.52;101375.38;5064759;28;1092;-46
2023/01/14 06:46:51;;;;;;;;;;;;;;;16.22;48.99;101374.63;5071928;28;1795;-45
2023/01/14 06:49:16;;;;;;;;;;;;;;;15.90;49.62;101367.09;5073570;28;1183;-46
2023/01/14 06:51:42;;;;;;;;;;;;;;;17.37;46.05;101367.19;5075442;28;1254;-45
2023/01/14 06:54:07;;;;;;;;;;;;;;;16.36;48.74;101369.56;5051898;28;1254;-47
2023/01/14 06:56:34;;;;;;;;;;;;;;;15.99;49.54;101363.91;5064438;28;1040;-44
2023/01/14 06:58:59;;;;;;;;;;;;;;;15.78;49.97;101377.34;5057891;28;1100;-42
2023/01/14 07:01:25;;;;;;;;;;;;;;;17.20;46.38;101369.28;5066545;28;2016;-45
2023/01/14 07:03:50;;;;;;;;;;;;;;;16.83;47.30;101372.78;5071722;28;1249;-45
2023/01/14 07:06:16;;;;;;;;;;;;;;;16.14;48.86;101379.72;5061417;28;1139;-42
2023/01/14 07:08:41;;;;;;;;;;;;;;;15.85;49.50;101379.91;5075283;28;1067;-43
2023/01/14 07:11:07;;;;;;;;;;;;;;;17.01;46.98;101375.19;5075263;28;1067;-43
2023/01/14 07:13:32;;;;;;;;;;;;;;;16.91;47.02;101370.44;5066995;28;1356;-43
2023/01/14 07:15:58;;;;;;;;;;;;;;;16.22;48.48;101374.63;5070020;28;1078;-44
2023/01/14 07:18:25;;;;;;;;;;;;;;;16.90;47.25;101384.41;5056958;28;2824;-44
2023/01/14 07:20:51;;;;;;;;;;;;;;;17.13;46.41;101388.72;5055564;28;1910;-44
2023/01/14 07:23:16;;;;;;;;;;;;;;;16.36;48.22;101394.25;5057417;28;1160;-42
2023/01/14 07:25:42;;;;;;;;;;;;;;;16.03;48.98;101387.84;5063418;28;1210;-41
2023/01/14 07:28:07;;;;;;;;;;;;;;;17.47;45.87;101388.41;5066237;28;1563;-47
2023/01/14 07:30:33;;;;;;;;;;;;;;;16.63;47.52;101398.94;5072043;28;1047;-44
2023/01/14 07:33:01;;;;;;;;;;;;;;;16.83;47.34;101394.75;5059062;28;1000;-43
2023/01/14 07:35:27;;;;;;;;;;;;;;;17.29;45.75;101392.41;5060595;28;1095;-42
2023/01/14 07:37:53;;;;;;;;;;;;;;;16.49;48.14;101405.94;5068792;28;909;-41
2023/01/14 07:40:19;;;;;;;;;;;;;;;16.14;48.86;101398.94;5061842;28;1910;-44
2023/01/14 07:42:44;;;;;;;;;;;;;;;16.76;47.45;101403.22;5064802;28;1219;-43
2023/01/14 07:45:10;;;;;;;;;;;;;;;17.06;46.37;101397.19;5065735;28;1332;-45
2023/01/14 07:47:35;;;;;;;;;;;;;;;16.34;48.37;101403.84;5071984;28;2340;-45
2023/01/14 07:50:00;;;;;;;;;;;;;;;16.03;49.08;101408.94;5064014;28;982;-41
2023/01/14 07:52:26;;;;;;;;;;;;;;;17.50;45.44;101404.41;5077601;28;1051;-41
2023/01/14 07:54:51;;;;;;;;;;;;;;;16.74;47.16;101413.63;5059066;28;1061;-44
2023/01/14 07:57:18;;;;;;;;;;;;;;;16.22;48.53;101407.53;5072861;28;1000;-45
2023/01/14 07:59:43;;;;;;;;;;;;;;;16.25;48.68;101406.22;5071706;28;1023;-43
2023/01/14 08:02:10;;;;;;;;;;;;;;;17.44;45.53;101417.28;5071097;28;1898;-41
2023/01/14 08:04:35;;;;;;;;;;;;;;;16.42;48.05;101417.97;5076552;28;1183;-45
2023/01/14 08:07:01;;;;;;;;;;;;;;;16.06;49.00;101420.25;5076706;28;1190;-40
2023/01/14 08:09:26;;;;;;;;;;;;;;;17.38;45.84;101418.34;5077897;28;1159;-40
2023/01/14 08:11:52;;;;;;;;;;;;;;;16.75;47.23;101421.59;5070313;28;1263;-43
2023/01/14 08:14:17;;;;;;;;;;;;;;;16.23;48.49;101419.38;5071428;28;1288;-43
2023/01/14 08:16:43;;;;;;;;;;;;;;;15.97;49.37;101435.47;5074046;28;1335;-44
2023/01/14 08:19:10;;;;;;;;;;;;;;;17.37;45.97;101424.09;5073730;28;2636;-42
2023/01/14 08:21:35;;;;;;;;;;;;;;;16.85;46.85;101420.03;5076480;28;1909;-42
2023/01/14 08:24:00;;;;;;;;;;;;;;;16.29;48.56;101423.81;5069667;28;948;-43
2023/01/14 08:26:26;;;;;;;;;;;;;;;15.99;49.17;101430.59;5073001;28;1016;-42
2023/01/14 08:28:51;;;;;;;;;;;;;;;17.45;45.57;101424.44;5078239;28;1055;-44
2023/01/14 08:31:17;;;;;;;;;;;;;;;16.49;47.89;101427.91;5070915;28;1015;-42
2023/01/14 08:33:43;;;;;;;;;;;;;;;16.09;48.94;101429.91;5070940;28;1111;-45
2023/01/14 08:36:15;;;;;;;;;;;;;;;17.13;46.35;101429.94;5076320;28;1155;-42
2023/01/14 08:38:41;;;;;;;;;;;;;;;17.07;46.20;101433.75;5062325;28;1031;-46
2023/01/14 08:41:08;;;;;;;;;;;;;;;16.34;48.24;101426.63;5057455;28;1984;-40
2023/01/14 08:43:33;;;;;;;;;;;;;;;16.57;47.87;101436.50;5068283;28;1230;-45
2023/01/14 08:45:59;;;;;;;;;;;;;;;17.40;45.49;101427.16;5066396;28;1076;-41
2023/01/14 08:48:25;;;;;;;;;;;;;;;16.47;47.67;101430.91;5062855;28;1818;-41
2023/01/14 08:50:50;;;;;;;;;;;;;;;16.11;48.57;101427.72;5066278;28;1157;-45
2023/01/14 08:53:15;;;;;;;;;;;;;;;17.30;46.03;101423.50;5072297;28;1209;-43
2023/01/14 08:55:41;;;;;;;;;;;;;;;16.85;46.99;101420.88;5070331;28;1040;-40
2023/01/14 08:58:06;;;;;;;;;;;;;;;16.27;48.21;101420.53;5058596;28;1055;-40
2023/01/14 09:00:32;;;;;;;;;;;;;;;16.01;48.95;101420.19;5069764;28;1981;-43
2023/01/14 09:02:58;;;;;;;;;;;;;;;17.55;45.12;101414.59;5066985;28;1056;-43
2023/01/14 09:05:23;;;;;;;;;;;;;;;16.60;47.37;101410.44;5077392;28;1051;-45
2023/01/14 09:18:44;;;;;;;;;;;;;;;17.17;45.99;101400.03;5058909;28;2382;-47
2023/01/14 09:21:10;;;;;;;;;;;;;;;16.42;47.91;101401.50;5059266;28;1979;-48
2023/01/14 09:23:36;;;;;;;;;;;;;;;16.07;48.63;101389.00;5066732;28;1226;-44
2023/01/14 09:26:01;;;;;;;;;;;;;;;17.34;45.86;101386.97;5075958;28;1082;-47
2023/01/14 09:28:27;;;;;;;;;;;;;;;16.70;47.08;101385.81;5073676;28;1236;-41
2023/01/14 09:30:52;;;;;;;;;;;;;;;16.17;48.43;101384.72;5076709;28;985;-44
2023/01/14 09:33:18;;;;;;;;;;;;;;;15.98;49.00;101379.53;5066778;28;1167;-42
2023/01/14 09:35:43;;;;;;;;;;;;;;;17.54;45.36;101377.19;5070435;28;1028;-43
2023/01/14 09:38:09;;;;;;;;;;;;;;;16.61;47.49;101384.66;5067801;28;1032;-44
2023/01/14 09:40:38;;;;;;;;;;;;;;;16.14;48.74;101377.00;5060771;28;1910;-42
2023/01/14 09:43:04;;;;;;;;;;;;;;;17.04;46.34;101373.81;5076308;28;1011;-45
2023/01/14 09:45:30;;;;;;;;;;;;;;;16.94;46.45;101380.03;5062578;28;1008;-45
2023/01/14 09:48:15;;;;;;;;;;;;;;;16.32;48.14;101373.09;5075849;28;1817;-48
2023/01/14 09:50:49;;;;;;;;;;;;;;;16.15;48.65;101378.66;5059628;28;1104;-45
2023/01/14 09:53:33;;;;;;;;;;;;;;;17.76;44.84;101369.63;5074564;28;1186;-47
2023/01/14 09:56:01;;;;;;;;;;;;;;;16.64;47.16;101373.16;5075075;28;1206;-41
2023/01/14 09:58:33;;;;;;;;;;;;;;;16.20;48.34;101357.59;5058016;28;1055;-41
2023/01/14 10:01:17;;;;;;;;;;;;;;;17.39;45.50;101362.28;5067623;28;1995;-44
2023/01/14 10:03:59;;;;;;;;;;;;;;;16.85;46.79;101354.13;5067025;28;900;-41
2023/01/14 10:06:24;;;;;;;;;;;;;;;16.28;48.22;101356.28;5055280;28;1058;-41
2023/01/14 10:08:54;;;;;;;;;;;;;;;16.50;48.09;101348.03;5066115;28;1074;-39
2023/01/14 10:11:20;;;;;;;;;;;;;;;17.26;45.80;101349.81;5055266;28;1108;-42
2023/01/14 10:13:59;;;;;;;;;;;;;;;16.43;47.66;101352.91;5046966;28;1305;-40
2023/01/14 10:16:28;;;;;;;;;;;;;;;16.24;48.60;101346.91;5047151;28;1374;-43
2023/01/14 10:18:56;;;;;;;;;;;;;;;17.72;44.84;101351.19;5067849;28;2246;-42
2023/01/14 10:21:29;;;;;;;;;;;;;;;16.65;47.34;101341.88;5038126;28;1979;-45
2023/01/14 10:23:55;;;;;;;;;;;;;;;16.24;48.17;101344.16;5045407;28;1037;-45
2023/01/14 10:26:21;;;;;;;;;;;;;;;17.75;44.91;101343.22;5061941;28;1162;-44
2023/01/14 10:28:48;;;;;;;;;;;;;;;16.68;47.05;101344.09;5074186;28;957;-43
2023/01/14 10:31:18;;;;;;;;;;;;;;;16.29;48.14;101341.50;5061248;28;1107;-42
2023/01/14 10:33:45;;;;;;;;;;;;;;;16.37;48.04;101335.53;5056276;28;1031;-43
2023/01/14 10:36:14;;;;;;;;;;;;;;;17.53;45.26;101334.28;5063595;28;1017;-43
2023/01/14 10:38:42;;;;;;;;;;;;;;;16.64;47.30;101331.16;5046813;28;1115;-43
2023/01/14 10:41:07;;;;;;;;;;;;;;;16.15;48.48;101337.50;5055649;28;1973;-45
2023/01/14 10:43:33;;;;;;;;;;;;;;;17.40;45.74;101325.44;5070304;28;1110;-42
2023/01/14 10:45:58;;;;;;;;;;;;;;;16.83;46.81;101326.06;5075586;28;1027;-43
2023/01/14 10:48:25;;;;;;;;;;;;;;;16.23;48.16;101321.41;5074836;28;1808;-43
2023/01/14 10:50:50;;;;;;;;;;;;;;;16.56;47.77;101322.28;5068544;28;1013;-43
2023/01/14 10:53:19;;;;;;;;;;;;;;;17.09;46.07;101321.66;5043772;28;1063;-40
2023/01/14 10:55:52;;;;;;;;;;;;;;;16.33;48.15;101314.38;5055761;28;1036;-44
2023/01/14 10:58:24;;;;;;;;;;;;;;;17.73;44.82;101314.34;5043334;28;1047;-44
2023/01/14 11:00:54;;;;;;;;;;;;;;;16.71;46.99;101316.09;5052160;28;1902;-43
2023/01/14 11:03:21;;;;;;;;;;;;;;;16.27;48.37;101309.91;5063170;28;1043;-43
2023/01/14 11:05:46;;;;;;;;;;;;;;;16.87;46.93;101316.22;5069827;28;1027;-43
2023/01/14 11:08:21;;;;;;;;;;;;;;;17.18;46.12;101308.22;5054998;28;1221;-46
2023/01/14 11:10:56;;;;;;;;;;;;;;;16.33;47.96;101306.97;5071363;28;1036;-45
2023/01/14 11:13:23;;;;;;;;;;;;;;;17.33;45.80;101310.25;5073795;28;1035;-43
2023/01/14 11:15:49;;;;;;;;;;;;;;;16.78;47.00;101310.38;5064552;28;1080;-44
2023/01/14 11:18:14;;;;;;;;;;;;;;;16.24;48.18;101311.25;5048578;28;2345;-43
2023/01/14 11:20:40;;;;;;;;;;;;;;;16.66;47.55;101307.84;5059067;28;1976;-46
2023/01/14 11:23:09;;;;;;;;;;;;;;;17.18;45.92;101302.75;5059356;28;1187;-43
2023/01/14 11:25:39;;;;;;;;;;;;;;;16.37;47.88;101304.53;5055062;28;1068;-43
2023/01/14 11:28:05;;;;;;;;;;;;;;;16.39;48.05;101300.41;5079546;28;885;-42
2023/01/14 11:30:30;;;;;;;;;;;;;;;17.58;44.95;101306.81;5078319;28;1119;-41
2023/01/14 11:32:59;;;;;;;;;;;;;;;16.52;47.54;101306.59;5066481;28;1579;-43
2023/01/14 11:35:26;;;;;;;;;;;;;;;16.17;48.30;101311.47;5077737;28;1512;-44
2023/01/14 11:37:55;;;;;;;;;;;;;;;17.55;45.19;101304.63;5044432;28;1096;-43
2023/01/14 11:40:22;;;;;;;;;;;;;;;16.63;47.34;101308.31;5075538;28;1901;-43
2023/01/14 11:42:50;;;;;;;;;;;;;;;16.18;48.46;101312.28;5062830;28;1610;-45
2023/01/14 11:45:17;;;;;;;;;;;;;;;16.91;46.78;101309.16;5070923;28;1072;-43
2023/01/14 11:47:47;;;;;;;;;;;;;;;16.86;46.89;101315.41;5060373;28;2335;-44
2023/01/14 11:50:18;;;;;;;;;;;;;;;16.28;48.13;101314.31;5063843;28;1001;-46
2023/01/14 11:53:02;;;;;;;;;;;;;;;17.62;44.94;101319.75;5071411;28;904;-43
2023/01/14 11:55:28;;;;;;;;;;;;;;;16.53;47.41;101314.56;5072146;28;1126;-44
2023/01/14 11:57:55;;;;;;;;;;;;;;;16.22;48.54;101313.44;5075798;28;968;-42
2023/01/14 12:00:21;;;;;;;;;;;;;;;17.42;45.35;101315.00;5041423;28;1965;-42
2023/01/14 12:02:47;;;;;;;;;;;;;;;16.47;47.83;101314.78;5071353;28;1082;-42
2023/01/14 12:05:14;;;;;;;;;;;;;;;16.07;48.81;101317.66;5059804;28;1020;-42
2023/01/14 12:07:47;;;;;;;;;;;;;;;17.48;45.40;101318.59;5047599;28;920;-43
2023/01/14 12:10:13;;;;;;;;;;;;;;;16.52;47.55;101318.41;5057484;28;1104;-42
2023/01/14 12:18:09;;;;;;;;;;;;;;;16.82;46.77;101310.72;5070219;28;2470;-41
2023/01/14 12:20:34;;;;;;;;;;;;;;;16.23;48.49;101318.66;5060617;28;1978;-41
2023/01/14 12:23:02;;;;;;;;;;;;;;;17.37;45.69;101316.88;5046901;28;1179;-43
2023/01/14 12:25:28;;;;;;;;;;;;;;;16.68;47.35;101313.88;5047456;28;1064;-43
2023/01/14 12:28:03;;;;;;;;;;;;;;;16.19;48.69;101319.44;5074363;28;1083;-43
2023/01/14 12:30:49;;;;;;;;;;;;;;;17.75;44.85;101320.38;5076851;28;1103;-42
2023/01/14 12:33:17;;;;;;;;;;;;;;;16.63;47.42;101318.50;5057631;28;1538;-42
2023/01/14 12:35:46;;;;;;;;;;;;;;;16.22;48.47;101325.22;5061830;28;1095;-43
2023/01/14 12:46:39;;;;;;;;;;;;;;;16.05;48.68;101325.31;5070343;28;1095;-41
2023/01/14 12:49:05;;;;;;;;;;;;;;;17.32;46.05;101325.94;5077157;28;2512;-40
2023/01/14 12:51:31;;;;;;;;;;;;;;;16.76;46.88;101337.31;5064336;28;1163;-44
2023/01/14 12:53:57;;;;;;;;;;;;;;;16.17;48.59;101332.56;5058271;28;913;-42
2023/01/14 12:56:24;;;;;;;;;;;;;;;17.13;46.30;101338.44;5059537;28;966;-42
2023/01/14 12:58:51;;;;;;;;;;;;;;;16.73;46.85;101338.66;5070076;28;1123;-42
2023/01/14 13:01:20;;;;;;;;;;;;;;;16.17;48.59;101341.66;5052824;28;1902;-45
2023/01/14 13:03:52;;;;;;;;;;;;;;;17.44;45.59;101333.97;5047728;28;1052;-46
2023/01/14 13:06:23;;;;;;;;;;;;;;;16.67;47.23;101325.94;5057283;28;1051;-46
2023/01/14 13:08:52;;;;;;;;;;;;;;;16.18;48.36;101339.72;5057132;28;1108;-43
2023/01/14 13:11:22;;;;;;;;;;;;;;;16.11;48.58;101339.09;5056551;28;1032;-44
2023/01/14 13:13:51;;;;;;;;;;;;;;;15.81;49.19;101340.38;5059436;28;1008;-42
2023/01/14 13:16:35;;;;;;;;;;;;;;;15.60;49.77;101352.94;5063551;28;1016;-43
2023/01/14 13:19:05;;;;;;;;;;;;;;;16.21;48.47;101344.69;5057815;28;2527;-43
2023/01/14 13:21:48;;;;;;;;;;;;;;;17.30;45.54;101343.78;5058753;28;1898;-46
2023/01/14 13:24:33;;;;;;;;;;;;;;;16.16;48.47;101342.72;5072060;28;1179;-42
2023/01/14 13:27:00;;;;;;;;;;;;;;;15.85;49.10;101350.59;5047980;28;1025;-46
2023/01/14 13:29:26;;;;;;;;;;;;;;;17.29;45.91;101353.94;5053146;28;1028;-45
2023/01/14 13:31:53;;;;;;;;;;;;;;;17.01;46.35;101353.19;5065145;28;1171;-48
2023/01/14 13:34:22;;;;;;;;;;;;;;;16.28;48.25;101356.28;5062681;28;1091;-47
2023/01/14 13:37:08;;;;;;;;;;;;;;;17.21;46.11;101355.25;5076600;28;976;-44